Terminal Aerodrome Forecast
Issued by NWS

Home | Current Version | Previous Version | Text Only | Print | Product List | Glossary On
Versions: 1 2 3 4 5 6 7 8 9 10 11 12 13 14 15 16 17 18 19 20 21 22 23 24 25 26
326
FTUS46 KLOX 272336
TAFLAX
TAF
KLAX 272336Z 2800/2906 26013KT P6SM SKC
     FM280300 26008KT P6SM SKC
     FM280500 VRB03KT 5SM BR BKN007
     FM281100 12006KT 6SM BR OVC010
     FM281600 23005KT P6SM SCT012
     FM282000 25012KT P6SM SKC
     FM290200 26008KT P6SM SKC=

USA.gov is the U.S. government's official web portal to all federal, state and local government web resources and services.